Friday, October 19, 2018, 12:41 AM EDT
Back to Local

KAQW, N Adams Harriman-and-west

Location: North Adams, MA, United States Lat: 42.7
Local Time: 12:41 AM EDT ( 4:41 GMT) Lon: -73.167
Time Zone: US/Eastern Elev: 652 ft

Show me the last for .
Show Decoded

2018-10-18 23:52 METAR KAQW 190352Z AUTO 27010KT 10SM OVC041 03/M03 A3026 RMK AO2 SLP253
                 T00281033 =
2018-10-18 22:52 METAR KAQW 190252Z AUTO 25011KT 10SM OVC040 03/M03 A3028 RMK AO2 SLP258
                 T00281033 58001 =
2018-10-18 21:52 METAR KAQW 190152Z AUTO 27010KT 10SM BKN035 BKN045 03/M04 A3029 RMK AO2 SLP263
                 T00281039 =
2018-10-18 20:52 METAR KAQW 190052Z AUTO 27009KT 10SM FEW042 02/M05 A3028 RMK AO2 SLP261
                 T00221050 =
2018-10-18 19:52 METAR KAQW 182352Z AUTO 27011KT 10SM CLR 03/M06 A3028 RMK AO2 SLP261 T00281056
                 10061 20028 52014 =
2018-10-18 18:52 METAR KAQW 182252Z AUTO 27017G22KT 10SM CLR 03/M07 A3027 RMK AO2 SLP257
                 T00331067 =
2018-10-18 17:52 METAR KAQW 182152Z AUTO 27012G18KT 10SM CLR 04/M08 A3025 RMK AO2 SLP250
                 T00391083 =
2018-10-18 16:52 METAR KAQW 182052Z AUTO 29015G20KT 10SM CLR 06/M09 A3024 RMK AO2 SLP245
                 T00561089 56007 =
2018-10-18 15:52 METAR KAQW 181952Z AUTO 27019G23KT 10SM CLR 06/M08 A3024 RMK AO2 SLP246
                 T00561083 =
2018-10-18 14:52 METAR KAQW 181852Z AUTO 28010G20KT 10SM CLR 06/M08 A3024 RMK AO2 SLP248
                 T00561078 =
2018-10-18 13:52 METAR KAQW 181752Z AUTO 29015G25KT 10SM FEW060 05/M08 A3026 RMK AO2 RAB02E26
                 SLP253 P0000 60000 T00501083 10050 20000 50000 =
2018-10-18 12:52 METAR KAQW 181652Z AUTO 29008G20KT 270V330 10SM CLR 04/M08 A3027 RMK AO2
                 RAB16E41SNE16 SLP257 P0000 T00441078 =
2018-10-18 11:52 METAR KAQW 181552Z AUTO 29008KT 250V330 9SM -SN SCT049 04/M07 A3027 RMK AO2 PK
                 WND 28028/1537 SNB1456 SLP257 P0000 T00391072 =
2018-10-18 10:52 METAR KAQW 181452Z AUTO 28012G18KT 270V340 9SM CLR 03/M07 A3026 RMK AO2 SNE48
                 SLP253 P0000 60000 T00331072 51009 =
2018-10-18 09:52 METAR KAQW 181352Z AUTO 27017G25KT 9SM -SN CLR 02/M07 A3026 RMK AO2 PK WND
                 26028/1321 SLP253 P0000 T00221067 =
2018-10-18 08:52 METAR KAQW 181252Z AUTO 27015G28KT 9SM -SN CLR 01/M07 A3025 RMK AO2 PK WND
                 28028/1250 SLP250 P0000 T00111067 =
2018-10-18 07:52 METAR KAQW 181152Z AUTO 27010G21KT 9SM -SN CLR 00/M07 A3023 RMK AO2 SNB45 SLP243
                 P0000 60000 70005 T00001067 10028 21011 51033 =
2018-10-18 06:52 METAR KAQW 181052Z AUTO 25006KT 10SM OVC044 M01/M06 A3021 RMK AO2 SLP235
                 T10061056 =
2018-10-18 05:52 METAR KAQW 180952Z AUTO 28005KT 10SM FEW044 00/M06 A3018 RMK AO2 SNE15 SLP225
                 P0000 T00001056 =
2018-10-18 04:52 METAR KAQW 180852Z AUTO 26012KT 9SM -SN CLR 01/M06 A3013 RMK AO2 SNB0753 SLP210
                 P0000 60000 T00061056 53027 =
2018-10-18 03:52 METAR KAQW 180752Z AUTO 28011G20KT 250V320 9SM CLR 02/M05 A3010 RMK AO2 SNE52
                 SLP200 P0000 T00171050 =
2018-10-18 02:52 METAR KAQW 180652Z AUTO 27012G22KT 9SM -SN FEW060 02/M04 A3007 RMK AO2 PK WND
                 29027/0639 SNB0553 SLP187 P0000 T00171044 =
2018-10-18 01:52 METAR KAQW 180552Z AUTO 26012KT 10SM OVC090 03/M02 A3005 RMK AO2 SNE42 SLP181
                 P0000 60001 T00281022 10061 20022 51019 =
2018-10-18 00:52 METAR KAQW 180452Z AUTO 27011G18KT 9SM -SN FEW060 SCT080 SCT090 03/M01 A3003 RMK
                 AO2 PK WND 27028/0422 RAE03SNB03 SLP175 P0000 T00281011 401221011 =

Support USWX by starting your Amazon purchase here.